Creighton, PA (15030)

6:53 AM EDT on July 29, 2016 (GMT -0400)
40 Acres | | Change Station

Elev 1003 ft 40.58 °N, 79.74 °W | Updated 2 seconds ago

Overcast
Overcast
66.5 °F
Feels Like 66.5 °F
N
0.0
Wind Variable Wind from North
Gusts 0.0 mph

Today
High -- | Low -- °F
--% Chance of Precip.
Yesterday
High -- | Low -- °F
Precip. -- in
Pressure 29.98 in
Visibility 0.2 miles
Clouds Overcast 200 ft
Dew Point 66 °F
Humidity 98%
Rainfall 0.00 in
Snow Depth Not available.
6:13 AM 8:36 PM
Waning Crescent, 23% visible
METAR KBTP 291035Z AUTO 00000KT M1/4SM OVC002 18/17 A2998 RMK AO1
Pressure 29.98 in
Visibility 0.2 miles
Clouds Overcast 200 ft
Dew Point 66 °F
Humidity 98%
Rainfall 0.00 in
Snow Depth Not available.
6:13 AM 8:36 PM
Waning Crescent, 23% visible
METAR KBTP 291035Z AUTO 00000KT M1/4SM OVC002 18/17 A2998 RMK AO1

10-Day Weather Forecast

Almanac

Astronomy

Jul. 29, 2016 Rise Set
Actual Time
Civil Twilight
Nautical Twilight
Astronomical Twilight
Moon
Length of Visible Light
Length of Day
Tomorrow will be .
, % of the Moon is Illuminated

Today's Extremes

State Highs State Lows

Community

WunderPhotos

Upload Photos

1,928,311 photos uploaded!

WunderBlog® & News

Nearby

Air Quality

  Air Quality AQ Index Pollutant
Not available.

Snow Depth

Station Depth Elevation

Earthquake Activity

City Distance Mag. Time & Date
Minimum magnitude displayed is 2.5.

Coastal Water Temperatures

Place Temperature

Stations

Nearby Weather Stations

Station Location Temp. Windchill Dew Point Humidity Wind Precip. Elev Updated Type
                   

Watches & Warnings

There are currently no watches in effect.